sensor_id;sensor_type;location;lat;lon;timestamp;P1;durP1;ratioP1;P2;durP2;ratioP2
2724;SDS011;1370;52.596;13.112;2022-09-17T00:00:07;3.33;;;2.20;;
2724;SDS011;1370;52.596;13.112;2022-09-17T00:02:33;5.20;;;2.17;;
2724;SDS011;1370;52.596;13.112;2022-09-17T00:04:59;3.10;;;2.03;;
2724;SDS011;1370;52.596;13.112;2022-09-17T00:07:24;5.70;;;2.10;;
2724;SDS011;1370;52.596;13.112;2022-09-17T00:09:49;6.63;;;2.77;;
2724;SDS011;1370;52.596;13.112;2022-09-17T00:12:14;3.67;;;1.70;;
2724;SDS011;1370;52.596;13.112;2022-09-17T00:14:40;4.37;;;2.60;;
2724;SDS011;1370;52.596;13.112;2022-09-17T00:17:05;9.37;;;2.77;;
2724;SDS011;1370;52.596;13.112;2022-09-17T00:19:30;7.07;;;2.20;;
2724;SDS011;1370;52.596;13.112;2022-09-17T00:21:55;4.63;;;2.20;;
2724;SDS011;1370;52.596;13.112;2022-09-17T00:24:21;4.13;;;2.57;;
2724;SDS011;1370;52.596;13.112;2022-09-17T00:26:47;2.87;;;2.17;;
2724;SDS011;1370;52.596;13.112;2022-09-17T00:29:12;7.60;;;2.07;;
2724;SDS011;1370;52.596;13.112;2022-09-17T00:31:38;4.13;;;2.30;;
2724;SDS011;1370;52.596;13.112;2022-09-17T00:34:04;4.57;;;2.97;;
2724;SDS011;1370;52.596;13.112;2022-09-17T00:36:29;8.57;;;2.40;;
2724;SDS011;1370;52.596;13.112;2022-09-17T00:38:55;7.17;;;3.30;;
2724;SDS011;1370;52.596;13.112;2022-09-17T00:41:22;6.70;;;2.83;;
2724;SDS011;1370;52.596;13.112;2022-09-17T00:43:54;6.43;;;2.07;;
2724;SDS011;1370;52.596;13.112;2022-09-17T00:49:09;6.00;;;2.33;;
2724;SDS011;1370;52.596;13.112;2022-09-17T00:51:40;9.10;;;3.10;;
2724;SDS011;1370;52.596;13.112;2022-09-17T00:54:09;6.57;;;3.10;;
2724;SDS011;1370;52.596;13.112;2022-09-17T00:56:36;2.77;;;2.53;;
2724;SDS011;1370;52.596;13.112;2022-09-17T00:59:03;3.70;;;2.20;;
2724;SDS011;1370;52.596;13.112;2022-09-17T01:01:29;3.87;;;2.20;;
2724;SDS011;1370;52.596;13.112;2022-09-17T01:03:55;4.90;;;1.80;;
2724;SDS011;1370;52.596;13.112;2022-09-17T01:12:22;6.80;;;2.50;;
2724;SDS011;1370;52.596;13.112;2022-09-17T01:15:20;8.77;;;2.90;;
2724;SDS011;1370;52.596;13.112;2022-09-17T01:18:01;5.10;;;2.47;;
2724;SDS011;1370;52.596;13.112;2022-09-17T01:20:55;5.30;;;3.03;;
2724;SDS011;1370;52.596;13.112;2022-09-17T01:26:14;3.30;;;2.70;;
2724;SDS011;1370;52.596;13.112;2022-09-17T01:28:56;4.33;;;3.00;;
2724;SDS011;1370;52.596;13.112;2022-09-17T01:31:35;9.60;;;2.50;;
2724;SDS011;1370;52.596;13.112;2022-09-17T01:36:56;2.93;;;2.60;;
2724;SDS011;1370;52.596;13.112;2022-09-17T01:39:30;4.13;;;2.33;;
2724;SDS011;1370;52.596;13.112;2022-09-17T01:45:34;3.07;;;2.37;;
2724;SDS011;1370;52.596;13.112;2022-09-17T01:48:05;2.17;;;1.90;;
2724;SDS011;1370;52.596;13.112;2022-09-17T01:50:36;7.03;;;2.63;;
2724;SDS011;1370;52.596;13.112;2022-09-17T01:53:05;6.80;;;2.90;;
2724;SDS011;1370;52.596;13.112;2022-09-17T01:55:32;7.13;;;2.63;;
2724;SDS011;1370;52.596;13.112;2022-09-17T01:58:04;11.13;;;3.03;;
2724;SDS011;1370;52.596;13.112;2022-09-17T02:00:35;4.37;;;2.60;;
2724;SDS011;1370;52.596;13.112;2022-09-17T02:03:19;7.13;;;2.90;;
2724;SDS011;1370;52.596;13.112;2022-09-17T02:05:54;6.20;;;2.60;;
2724;SDS011;1370;52.596;13.112;2022-09-17T02:08:23;12.23;;;4.13;;
2724;SDS011;1370;52.596;13.112;2022-09-17T02:11:02;4.90;;;3.00;;
2724;SDS011;1370;52.596;13.112;2022-09-17T02:13:33;7.47;;;2.87;;
2724;SDS011;1370;52.596;13.112;2022-09-17T02:16:27;5.20;;;2.50;;
2724;SDS011;1370;52.596;13.112;2022-09-17T02:19:03;4.20;;;2.40;;
2724;SDS011;1370;52.596;13.112;2022-09-17T02:24:03;6.33;;;3.03;;
2724;SDS011;1370;52.596;13.112;2022-09-17T02:26:31;8.20;;;3.20;;
2724;SDS011;1370;52.596;13.112;2022-09-17T02:29:01;4.00;;;2.40;;
2724;SDS011;1370;52.596;13.112;2022-09-17T02:31:32;4.50;;;2.90;;
2724;SDS011;1370;52.596;13.112;2022-09-17T02:33:58;6.23;;;2.73;;
2724;SDS011;1370;52.596;13.112;2022-09-17T02:36:25;7.53;;;3.33;;
2724;SDS011;1370;52.596;13.112;2022-09-17T02:38:57;3.43;;;2.53;;
2724;SDS011;1370;52.596;13.112;2022-09-17T02:41:24;2.73;;;2.30;;
2724;SDS011;1370;52.596;13.112;2022-09-17T02:43:55;5.83;;;3.43;;
2724;SDS011;1370;52.596;13.112;2022-09-17T02:46:31;10.43;;;3.20;;
2724;SDS011;1370;52.596;13.112;2022-09-17T02:54:27;5.87;;;2.17;;
2724;SDS011;1370;52.596;13.112;2022-09-17T02:57:51;7.30;;;3.13;;
2724;SDS011;1370;52.596;13.112;2022-09-17T03:00:03;10.80;;;2.97;;
2724;SDS011;1370;52.596;13.112;2022-09-17T03:02:34;3.10;;;2.63;;
2724;SDS011;1370;52.596;13.112;2022-09-17T03:05:14;2.77;;;2.30;;
2724;SDS011;1370;52.596;13.112;2022-09-17T03:07:42;10.73;;;3.57;;
2724;SDS011;1370;52.596;13.112;2022-09-17T03:10:07;5.23;;;2.17;;
2724;SDS011;1370;52.596;13.112;2022-09-17T03:12:33;6.50;;;2.70;;
2724;SDS011;1370;52.596;13.112;2022-09-17T03:14:58;4.47;;;2.37;;
2724;SDS011;1370;52.596;13.112;2022-09-17T03:17:24;6.23;;;2.80;;
2724;SDS011;1370;52.596;13.112;2022-09-17T03:19:50;6.63;;;2.80;;
2724;SDS011;1370;52.596;13.112;2022-09-17T03:22:15;8.53;;;3.00;;
2724;SDS011;1370;52.596;13.112;2022-09-17T03:24:40;7.20;;;3.47;;
2724;SDS011;1370;52.596;13.112;2022-09-17T03:27:05;6.63;;;2.37;;
2724;SDS011;1370;52.596;13.112;2022-09-17T03:29:31;3.23;;;2.50;;
2724;SDS011;1370;52.596;13.112;2022-09-17T03:31:56;7.13;;;2.83;;
2724;SDS011;1370;52.596;13.112;2022-09-17T03:34:21;4.10;;;3.07;;
2724;SDS011;1370;52.596;13.112;2022-09-17T03:36:47;6.87;;;2.60;;
2724;SDS011;1370;52.596;13.112;2022-09-17T03:39:13;5.93;;;3.07;;
2724;SDS011;1370;52.596;13.112;2022-09-17T03:41:38;5.43;;;3.17;;
2724;SDS011;1370;52.596;13.112;2022-09-17T03:44:03;4.90;;;3.17;;
2724;SDS011;1370;52.596;13.112;2022-09-17T03:46:29;6.27;;;2.90;;
2724;SDS011;1370;52.596;13.112;2022-09-17T03:48:54;7.70;;;3.23;;
2724;SDS011;1370;52.596;13.112;2022-09-17T03:51:20;7.13;;;3.00;;
2724;SDS011;1370;52.596;13.112;2022-09-17T03:53:45;7.33;;;3.20;;
2724;SDS011;1370;52.596;13.112;2022-09-17T03:56:10;5.00;;;2.87;;
2724;SDS011;1370;52.596;13.112;2022-09-17T03:58:35;3.43;;;2.73;;
2724;SDS011;1370;52.596;13.112;2022-09-17T04:01:01;9.63;;;3.17;;
2724;SDS011;1370;52.596;13.112;2022-09-17T04:03:28;4.67;;;2.73;;
2724;SDS011;1370;52.596;13.112;2022-09-17T04:05:53;9.90;;;3.00;;
2724;SDS011;1370;52.596;13.112;2022-09-17T04:08:19;7.13;;;3.90;;
2724;SDS011;1370;52.596;13.112;2022-09-17T04:10:45;8.97;;;3.10;;
2724;SDS011;1370;52.596;13.112;2022-09-17T04:13:11;5.70;;;3.00;;
2724;SDS011;1370;52.596;13.112;2022-09-17T04:15:37;5.20;;;2.83;;
2724;SDS011;1370;52.596;13.112;2022-09-17T04:18:02;10.40;;;4.50;;
2724;SDS011;1370;52.596;13.112;2022-09-17T04:20:27;6.00;;;3.10;;
2724;SDS011;1370;52.596;13.112;2022-09-17T04:22:53;8.73;;;3.73;;
2724;SDS011;1370;52.596;13.112;2022-09-17T04:25:18;7.73;;;2.93;;
2724;SDS011;1370;52.596;13.112;2022-09-17T04:27:44;4.00;;;2.53;;
2724;SDS011;1370;52.596;13.112;2022-09-17T04:30:09;7.00;;;2.70;;
2724;SDS011;1370;52.596;13.112;2022-09-17T04:32:35;5.93;;;3.50;;
2724;SDS011;1370;52.596;13.112;2022-09-17T04:35:01;2.70;;;2.50;;
2724;SDS011;1370;52.596;13.112;2022-09-17T04:37:26;4.63;;;2.67;;
2724;SDS011;1370;52.596;13.112;2022-09-17T04:39:51;5.83;;;2.63;;
2724;SDS011;1370;52.596;13.112;2022-09-17T04:42:16;5.30;;;3.10;;
2724;SDS011;1370;52.596;13.112;2022-09-17T04:44:42;6.87;;;3.43;;
2724;SDS011;1370;52.596;13.112;2022-09-17T04:47:07;8.67;;;2.90;;
2724;SDS011;1370;52.596;13.112;2022-09-17T04:49:32;8.43;;;3.80;;
2724;SDS011;1370;52.596;13.112;2022-09-17T04:51:58;2.87;;;2.67;;
2724;SDS011;1370;52.596;13.112;2022-09-17T04:54:23;2.87;;;2.60;;
2724;SDS011;1370;52.596;13.112;2022-09-17T04:56:48;3.63;;;3.00;;
2724;SDS011;1370;52.596;13.112;2022-09-17T04:59:14;8.10;;;4.13;;
2724;SDS011;1370;52.596;13.112;2022-09-17T05:01:39;13.80;;;4.07;;
2724;SDS011;1370;52.596;13.112;2022-09-17T05:04:05;3.23;;;2.70;;
2724;SDS011;1370;52.596;13.112;2022-09-17T05:06:30;4.47;;;2.70;;
2724;SDS011;1370;52.596;13.112;2022-09-17T05:08:55;8.07;;;3.23;;
2724;SDS011;1370;52.596;13.112;2022-09-17T05:11:21;6.53;;;2.77;;
2724;SDS011;1370;52.596;13.112;2022-09-17T05:13:46;6.80;;;2.70;;
2724;SDS011;1370;52.596;13.112;2022-09-17T05:16:11;12.37;;;3.10;;
2724;SDS011;1370;52.596;13.112;2022-09-17T05:18:36;7.63;;;3.00;;
2724;SDS011;1370;52.596;13.112;2022-09-17T05:21:02;8.20;;;3.63;;
2724;SDS011;1370;52.596;13.112;2022-09-17T05:23:27;8.40;;;4.37;;
2724;SDS011;1370;52.596;13.112;2022-09-17T05:25:56;16.50;;;3.63;;
2724;SDS011;1370;52.596;13.112;2022-09-17T05:28:22;5.27;;;3.33;;
2724;SDS011;1370;52.596;13.112;2022-09-17T05:30:48;5.63;;;3.70;;
2724;SDS011;1370;52.596;13.112;2022-09-17T05:33:13;8.00;;;3.57;;
2724;SDS011;1370;52.596;13.112;2022-09-17T05:35:38;12.10;;;4.43;;
2724;SDS011;1370;52.596;13.112;2022-09-17T05:38:04;10.53;;;4.30;;
2724;SDS011;1370;52.596;13.112;2022-09-17T05:40:31;7.83;;;4.13;;
2724;SDS011;1370;52.596;13.112;2022-09-17T05:43:01;11.23;;;3.83;;
2724;SDS011;1370;52.596;13.112;2022-09-17T05:45:28;8.77;;;4.73;;
2724;SDS011;1370;52.596;13.112;2022-09-17T05:47:54;10.20;;;4.10;;
2724;SDS011;1370;52.596;13.112;2022-09-17T05:50:20;12.50;;;4.47;;
2724;SDS011;1370;52.596;13.112;2022-09-17T05:52:45;9.00;;;5.13;;
2724;SDS011;1370;52.596;13.112;2022-09-17T05:55:11;9.20;;;4.10;;
2724;SDS011;1370;52.596;13.112;2022-09-17T05:57:36;7.87;;;4.23;;
2724;SDS011;1370;52.596;13.112;2022-09-17T06:00:02;8.70;;;4.90;;
2724;SDS011;1370;52.596;13.112;2022-09-17T06:02:28;11.03;;;5.17;;
2724;SDS011;1370;52.596;13.112;2022-09-17T06:04:53;18.17;;;6.43;;
2724;SDS011;1370;52.596;13.112;2022-09-17T06:07:19;12.20;;;4.90;;
2724;SDS011;1370;52.596;13.112;2022-09-17T06:09:44;12.23;;;5.73;;
2724;SDS011;1370;52.596;13.112;2022-09-17T06:12:09;9.47;;;4.10;;
2724;SDS011;1370;52.596;13.112;2022-09-17T06:14:35;12.57;;;5.43;;
2724;SDS011;1370;52.596;13.112;2022-09-17T06:17:00;18.33;;;5.70;;
2724;SDS011;1370;52.596;13.112;2022-09-17T06:19:26;11.60;;;5.13;;
2724;SDS011;1370;52.596;13.112;2022-09-17T06:21:51;11.77;;;5.70;;
2724;SDS011;1370;52.596;13.112;2022-09-17T06:24:16;16.53;;;6.23;;
2724;SDS011;1370;52.596;13.112;2022-09-17T06:26:42;14.13;;;5.53;;
2724;SDS011;1370;52.596;13.112;2022-09-17T06:29:07;20.80;;;5.70;;
2724;SDS011;1370;52.596;13.112;2022-09-17T06:31:32;11.57;;;5.57;;
2724;SDS011;1370;52.596;13.112;2022-09-17T06:33:58;12.80;;;5.13;;
2724;SDS011;1370;52.596;13.112;2022-09-17T06:36:23;15.47;;;5.83;;
2724;SDS011;1370;52.596;13.112;2022-09-17T06:38:48;15.43;;;5.90;;
2724;SDS011;1370;52.596;13.112;2022-09-17T06:41:13;13.40;;;5.13;;
2724;SDS011;1370;52.596;13.112;2022-09-17T06:43:40;12.33;;;7.13;;
2724;SDS011;1370;52.596;13.112;2022-09-17T06:46:06;12.60;;;5.50;;
2724;SDS011;1370;52.596;13.112;2022-09-17T06:48:33;12.57;;;5.00;;
2724;SDS011;1370;52.596;13.112;2022-09-17T06:51:03;11.80;;;4.90;;
2724;SDS011;1370;52.596;13.112;2022-09-17T06:53:29;24.13;;;4.60;;
2724;SDS011;1370;52.596;13.112;2022-09-17T06:55:58;13.43;;;5.50;;
2724;SDS011;1370;52.596;13.112;2022-09-17T06:58:24;13.60;;;4.50;;
2724;SDS011;1370;52.596;13.112;2022-09-17T07:00:50;13.03;;;3.50;;
2724;SDS011;1370;52.596;13.112;2022-09-17T07:03:15;9.50;;;4.33;;
2724;SDS011;1370;52.596;13.112;2022-09-17T07:05:41;6.63;;;3.23;;
2724;SDS011;1370;52.596;13.112;2022-09-17T07:08:08;7.00;;;3.90;;
2724;SDS011;1370;52.596;13.112;2022-09-17T07:10:34;8.90;;;3.77;;
2724;SDS011;1370;52.596;13.112;2022-09-17T07:13:00;11.00;;;4.20;;
2724;SDS011;1370;52.596;13.112;2022-09-17T07:15:25;16.67;;;4.33;;
2724;SDS011;1370;52.596;13.112;2022-09-17T07:17:51;12.13;;;3.80;;
2724;SDS011;1370;52.596;13.112;2022-09-17T07:20:17;9.60;;;4.17;;
2724;SDS011;1370;52.596;13.112;2022-09-17T07:22:42;4.17;;;3.17;;
2724;SDS011;1370;52.596;13.112;2022-09-17T07:25:07;8.50;;;3.90;;
2724;SDS011;1370;52.596;13.112;2022-09-17T07:27:33;16.60;;;4.43;;
2724;SDS011;1370;52.596;13.112;2022-09-17T07:29:58;12.50;;;4.90;;
2724;SDS011;1370;52.596;13.112;2022-09-17T07:32:24;15.23;;;4.93;;
2724;SDS011;1370;52.596;13.112;2022-09-17T07:34:49;13.70;;;3.43;;
2724;SDS011;1370;52.596;13.112;2022-09-17T07:37:15;6.37;;;3.23;;
2724;SDS011;1370;52.596;13.112;2022-09-17T07:39:41;10.63;;;3.33;;
2724;SDS011;1370;52.596;13.112;2022-09-17T07:42:06;13.23;;;4.27;;
2724;SDS011;1370;52.596;13.112;2022-09-17T07:44:32;9.87;;;4.03;;
2724;SDS011;1370;52.596;13.112;2022-09-17T07:46:57;8.97;;;3.27;;
2724;SDS011;1370;52.596;13.112;2022-09-17T07:49:23;10.00;;;3.60;;
2724;SDS011;1370;52.596;13.112;2022-09-17T07:51:48;8.53;;;3.07;;
2724;SDS011;1370;52.596;13.112;2022-09-17T07:54:13;16.23;;;4.20;;
2724;SDS011;1370;52.596;13.112;2022-09-17T07:56:39;11.13;;;3.57;;
2724;SDS011;1370;52.596;13.112;2022-09-17T07:59:04;13.07;;;3.90;;
2724;SDS011;1370;52.596;13.112;2022-09-17T08:01:30;8.03;;;5.00;;
2724;SDS011;1370;52.596;13.112;2022-09-17T08:03:57;14.27;;;4.27;;
2724;SDS011;1370;52.596;13.112;2022-09-17T08:06:23;10.93;;;3.27;;
2724;SDS011;1370;52.596;13.112;2022-09-17T08:08:50;7.97;;;3.80;;
2724;SDS011;1370;52.596;13.112;2022-09-17T08:11:16;20.03;;;4.40;;
2724;SDS011;1370;52.596;13.112;2022-09-17T08:13:45;10.43;;;3.80;;
2724;SDS011;1370;52.596;13.112;2022-09-17T08:16:11;6.33;;;3.40;;
2724;SDS011;1370;52.596;13.112;2022-09-17T08:18:37;7.30;;;3.03;;
2724;SDS011;1370;52.596;13.112;2022-09-17T08:21:04;9.70;;;3.43;;
2724;SDS011;1370;52.596;13.112;2022-09-17T08:23:32;9.03;;;3.43;;
2724;SDS011;1370;52.596;13.112;2022-09-17T08:25:59;9.90;;;3.43;;
2724;SDS011;1370;52.596;13.112;2022-09-17T08:28:25;9.20;;;3.63;;
2724;SDS011;1370;52.596;13.112;2022-09-17T08:30:52;12.50;;;3.90;;
2724;SDS011;1370;52.596;13.112;2022-09-17T08:33:17;5.93;;;3.47;;
2724;SDS011;1370;52.596;13.112;2022-09-17T08:35:52;12.67;;;3.90;;
2724;SDS011;1370;52.596;13.112;2022-09-17T08:38:19;6.13;;;4.40;;
2724;SDS011;1370;52.596;13.112;2022-09-17T08:40:59;13.67;;;3.60;;
2724;SDS011;1370;52.596;13.112;2022-09-17T08:43:46;11.77;;;4.50;;
2724;SDS011;1370;52.596;13.112;2022-09-17T08:46:30;11.13;;;3.03;;
2724;SDS011;1370;52.596;13.112;2022-09-17T08:54:16;6.23;;;3.50;;
2724;SDS011;1370;52.596;13.112;2022-09-17T08:56:50;13.07;;;4.20;;
2724;SDS011;1370;52.596;13.112;2022-09-17T08:59:32;7.23;;;3.40;;
2724;SDS011;1370;52.596;13.112;2022-09-17T09:02:18;9.23;;;3.87;;
2724;SDS011;1370;52.596;13.112;2022-09-17T09:05:00;5.63;;;3.07;;
2724;SDS011;1370;52.596;13.112;2022-09-17T09:07:33;5.50;;;3.10;;
2724;SDS011;1370;52.596;13.112;2022-09-17T09:12:28;7.27;;;3.13;;
2724;SDS011;1370;52.596;13.112;2022-09-17T09:14:58;9.93;;;4.47;;
2724;SDS011;1370;52.596;13.112;2022-09-17T09:17:27;8.70;;;4.93;;
2724;SDS011;1370;52.596;13.112;2022-09-17T09:19:56;6.83;;;3.43;;
2724;SDS011;1370;52.596;13.112;2022-09-17T09:22:34;10.30;;;3.00;;
2724;SDS011;1370;52.596;13.112;2022-09-17T09:25:23;6.67;;;3.40;;
2724;SDS011;1370;52.596;13.112;2022-09-17T09:30:42;10.03;;;3.37;;
2724;SDS011;1370;52.596;13.112;2022-09-17T09:33:15;8.83;;;4.00;;
2724;SDS011;1370;52.596;13.112;2022-09-17T09:35:42;11.87;;;3.47;;
2724;SDS011;1370;52.596;13.112;2022-09-17T09:40:40;6.60;;;2.80;;
2724;SDS011;1370;52.596;13.112;2022-09-17T09:49:00;11.13;;;2.53;;
2724;SDS011;1370;52.596;13.112;2022-09-17T09:52:03;12.27;;;2.83;;
2724;SDS011;1370;52.596;13.112;2022-09-17T09:57:10;6.50;;;2.77;;
2724;SDS011;1370;52.596;13.112;2022-09-17T09:59:37;11.37;;;3.50;;
2724;SDS011;1370;52.596;13.112;2022-09-17T10:02:03;12.10;;;3.40;;
2724;SDS011;1370;52.596;13.112;2022-09-17T10:04:28;6.47;;;2.80;;
2724;SDS011;1370;52.596;13.112;2022-09-17T10:07:06;5.60;;;3.00;;
2724;SDS011;1370;52.596;13.112;2022-09-17T10:09:33;5.03;;;2.37;;
2724;SDS011;1370;52.596;13.112;2022-09-17T10:14:35;11.43;;;3.20;;
2724;SDS011;1370;52.596;13.112;2022-09-17T10:22:41;9.53;;;3.17;;
2724;SDS011;1370;52.596;13.112;2022-09-17T10:25:27;18.30;;;3.17;;
2724;SDS011;1370;52.596;13.112;2022-09-17T10:27:54;19.30;;;3.60;;
2724;SDS011;1370;52.596;13.112;2022-09-17T10:30:21;6.20;;;5.20;;
2724;SDS011;1370;52.596;13.112;2022-09-17T10:38:36;7.20;;;2.60;;
2724;SDS011;1370;52.596;13.112;2022-09-17T10:43:41;9.70;;;2.70;;
2724;SDS011;1370;52.596;13.112;2022-09-17T10:46:08;5.50;;;2.70;;
2724;SDS011;1370;52.596;13.112;2022-09-17T10:48:41;5.63;;;3.30;;
2724;SDS011;1370;52.596;13.112;2022-09-17T10:51:08;8.10;;;2.60;;
2724;SDS011;1370;52.596;13.112;2022-09-17T10:53:37;8.93;;;2.83;;
2724;SDS011;1370;52.596;13.112;2022-09-17T10:56:26;7.07;;;3.30;;
2724;SDS011;1370;52.596;13.112;2022-09-17T10:59:18;6.83;;;3.47;;
2724;SDS011;1370;52.596;13.112;2022-09-17T11:01:57;9.17;;;3.07;;
2724;SDS011;1370;52.596;13.112;2022-09-17T11:10:06;6.07;;;2.87;;
2724;SDS011;1370;52.596;13.112;2022-09-17T11:20:55;5.70;;;2.40;;
2724;SDS011;1370;52.596;13.112;2022-09-17T11:26:21;6.10;;;2.00;;
2724;SDS011;1370;52.596;13.112;2022-09-17T11:34:49;6.83;;;2.70;;
2724;SDS011;1370;52.596;13.112;2022-09-17T11:37:24;6.30;;;2.00;;
2724;SDS011;1370;52.596;13.112;2022-09-17T11:39:53;6.73;;;3.47;;
2724;SDS011;1370;52.596;13.112;2022-09-17T11:45:31;5.53;;;1.80;;
2724;SDS011;1370;52.596;13.112;2022-09-17T11:48:02;5.83;;;3.27;;
2724;SDS011;1370;52.596;13.112;2022-09-17T11:52:59;5.20;;;2.00;;
2724;SDS011;1370;52.596;13.112;2022-09-17T11:55:41;4.43;;;1.37;;
2724;SDS011;1370;52.596;13.112;2022-09-17T11:58:15;3.70;;;1.63;;
2724;SDS011;1370;52.596;13.112;2022-09-17T12:00:47;3.70;;;2.10;;
2724;SDS011;1370;52.596;13.112;2022-09-17T12:03:17;5.80;;;1.60;;
2724;SDS011;1370;52.596;13.112;2022-09-17T12:05:50;4.60;;;2.37;;
2724;SDS011;1370;52.596;13.112;2022-09-17T12:08:21;2.00;;;1.13;;
2724;SDS011;1370;52.596;13.112;2022-09-17T12:10:51;10.63;;;2.00;;
2724;SDS011;1370;52.596;13.112;2022-09-17T12:13:35;5.13;;;1.67;;
2724;SDS011;1370;52.596;13.112;2022-09-17T12:16:24;4.70;;;1.43;;
2724;SDS011;1370;52.596;13.112;2022-09-17T12:18:52;3.47;;;1.40;;
2724;SDS011;1370;52.596;13.112;2022-09-17T12:21:43;4.23;;;1.40;;
2724;SDS011;1370;52.596;13.112;2022-09-17T12:24:21;5.93;;;1.87;;
2724;SDS011;1370;52.596;13.112;2022-09-17T12:32:46;4.53;;;1.50;;
2724;SDS011;1370;52.596;13.112;2022-09-17T12:35:40;9.30;;;2.20;;
2724;SDS011;1370;52.596;13.112;2022-09-17T12:38:22;7.20;;;2.40;;
2724;SDS011;1370;52.596;13.112;2022-09-17T12:41:14;9.63;;;2.97;;
2724;SDS011;1370;52.596;13.112;2022-09-17T12:52:03;4.43;;;1.70;;
2724;SDS011;1370;52.596;13.112;2022-09-17T12:59:50;3.83;;;1.40;;
2724;SDS011;1370;52.596;13.112;2022-09-17T13:05:19;4.20;;;1.30;;
2724;SDS011;1370;52.596;13.112;2022-09-17T13:11:05;5.40;;;1.73;;
2724;SDS011;1370;52.596;13.112;2022-09-17T13:18:47;3.57;;;2.10;;
2724;SDS011;1370;52.596;13.112;2022-09-17T13:21:19;5.80;;;2.20;;
2724;SDS011;1370;52.596;13.112;2022-09-17T13:23:48;6.10;;;3.00;;
2724;SDS011;1370;52.596;13.112;2022-09-17T13:26:16;4.33;;;1.50;;
2724;SDS011;1370;52.596;13.112;2022-09-17T13:28:44;7.50;;;2.30;;
2724;SDS011;1370;52.596;13.112;2022-09-17T13:31:20;6.83;;;2.30;;
2724;SDS011;1370;52.596;13.112;2022-09-17T13:33:47;3.03;;;1.63;;
2724;SDS011;1370;52.596;13.112;2022-09-17T13:38:56;4.77;;;1.50;;
2724;SDS011;1370;52.596;13.112;2022-09-17T13:41:22;6.77;;;3.13;;
2724;SDS011;1370;52.596;13.112;2022-09-17T13:43:49;4.37;;;1.80;;
2724;SDS011;1370;52.596;13.112;2022-09-17T13:46:20;2.50;;;1.30;;
2724;SDS011;1370;52.596;13.112;2022-09-17T13:48:47;3.60;;;1.37;;
2724;SDS011;1370;52.596;13.112;2022-09-17T13:53:55;18.03;;;6.47;;
2724;SDS011;1370;52.596;13.112;2022-09-17T13:57:02;22.33;;;15.70;;
2724;SDS011;1370;52.596;13.112;2022-09-17T13:59:16;2.73;;;2.13;;
2724;SDS011;1370;52.596;13.112;2022-09-17T14:09:53;14.03;;;6.47;;
2724;SDS011;1370;52.596;13.112;2022-09-17T14:15:31;4.37;;;3.10;;
2724;SDS011;1370;52.596;13.112;2022-09-17T14:18:00;1.80;;;1.20;;
2724;SDS011;1370;52.596;13.112;2022-09-17T14:20:28;6.43;;;2.80;;
2724;SDS011;1370;52.596;13.112;2022-09-17T14:22:58;2.67;;;1.30;;
2724;SDS011;1370;52.596;13.112;2022-09-17T14:25:28;2.50;;;1.47;;
2724;SDS011;1370;52.596;13.112;2022-09-17T14:27:57;2.53;;;0.90;;
2724;SDS011;1370;52.596;13.112;2022-09-17T14:33:15;3.07;;;0.87;;
2724;SDS011;1370;52.596;13.112;2022-09-17T14:35:50;3.00;;;1.10;;
2724;SDS011;1370;52.596;13.112;2022-09-17T14:38:41;3.47;;;1.70;;
2724;SDS011;1370;52.596;13.112;2022-09-17T14:43:43;2.23;;;1.43;;
2724;SDS011;1370;52.596;13.112;2022-09-17T14:46:19;3.53;;;1.80;;
2724;SDS011;1370;52.596;13.112;2022-09-17T14:48:47;1.30;;;0.80;;
2724;SDS011;1370;52.596;13.112;2022-09-17T14:53:47;1.43;;;0.80;;
2724;SDS011;1370;52.596;13.112;2022-09-17T14:56:15;1.90;;;1.20;;
2724;SDS011;1370;52.596;13.112;2022-09-17T14:58:49;5.00;;;1.83;;
2724;SDS011;1370;52.596;13.112;2022-09-17T15:01:21;2.87;;;1.50;;
2724;SDS011;1370;52.596;13.112;2022-09-17T15:03:47;4.80;;;1.17;;
2724;SDS011;1370;52.596;13.112;2022-09-17T15:06:22;5.30;;;2.43;;
2724;SDS011;1370;52.596;13.112;2022-09-17T15:08:47;2.63;;;0.80;;
2724;SDS011;1370;52.596;13.112;2022-09-17T15:11:13;1.40;;;0.60;;
2724;SDS011;1370;52.596;13.112;2022-09-17T15:13:48;3.20;;;0.80;;
2724;SDS011;1370;52.596;13.112;2022-09-17T15:16:18;1.40;;;0.70;;
2724;SDS011;1370;52.596;13.112;2022-09-17T15:18:57;2.07;;;1.20;;
2724;SDS011;1370;52.596;13.112;2022-09-17T15:21:33;3.60;;;0.90;;
2724;SDS011;1370;52.596;13.112;2022-09-17T15:24:05;2.17;;;1.10;;
2724;SDS011;1370;52.596;13.112;2022-09-17T15:26:38;2.57;;;0.90;;
2724;SDS011;1370;52.596;13.112;2022-09-17T15:29:04;4.60;;;0.70;;
2724;SDS011;1370;52.596;13.112;2022-09-17T15:31:29;1.90;;;1.20;;
2724;SDS011;1370;52.596;13.112;2022-09-17T15:33:57;2.63;;;0.90;;
2724;SDS011;1370;52.596;13.112;2022-09-17T15:36:23;3.37;;;0.93;;
2724;SDS011;1370;52.596;13.112;2022-09-17T15:38:51;1.63;;;0.87;;
2724;SDS011;1370;52.596;13.112;2022-09-17T15:41:19;3.10;;;1.10;;
2724;SDS011;1370;52.596;13.112;2022-09-17T15:43:51;1.90;;;1.00;;
2724;SDS011;1370;52.596;13.112;2022-09-17T15:46:21;2.90;;;0.90;;
2724;SDS011;1370;52.596;13.112;2022-09-17T15:48:51;1.40;;;0.90;;
2724;SDS011;1370;52.596;13.112;2022-09-17T15:51:21;2.90;;;1.00;;
2724;SDS011;1370;52.596;13.112;2022-09-17T15:53:51;3.80;;;1.33;;
2724;SDS011;1370;52.596;13.112;2022-09-17T15:56:25;3.93;;;0.93;;
2724;SDS011;1370;52.596;13.112;2022-09-17T15:58:57;1.50;;;1.20;;
2724;SDS011;1370;52.596;13.112;2022-09-17T16:08:54;2.13;;;0.87;;
2724;SDS011;1370;52.596;13.112;2022-09-17T16:11:25;9.03;;;1.10;;
2724;SDS011;1370;52.596;13.112;2022-09-17T16:13:52;5.80;;;4.40;;
2724;SDS011;1370;52.596;13.112;2022-09-17T16:16:19;1.70;;;0.93;;
2724;SDS011;1370;52.596;13.112;2022-09-17T16:18:46;4.43;;;1.30;;
2724;SDS011;1370;52.596;13.112;2022-09-17T16:21:12;3.13;;;1.20;;
2724;SDS011;1370;52.596;13.112;2022-09-17T16:23:38;4.57;;;1.67;;
2724;SDS011;1370;52.596;13.112;2022-09-17T16:26:04;2.20;;;1.17;;
2724;SDS011;1370;52.596;13.112;2022-09-17T16:28:30;4.10;;;1.83;;
2724;SDS011;1370;52.596;13.112;2022-09-17T16:30:55;1.90;;;1.00;;
2724;SDS011;1370;52.596;13.112;2022-09-17T16:33:21;4.60;;;1.50;;
2724;SDS011;1370;52.596;13.112;2022-09-17T16:35:46;3.03;;;1.10;;
2724;SDS011;1370;52.596;13.112;2022-09-17T16:38:11;2.20;;;0.83;;
2724;SDS011;1370;52.596;13.112;2022-09-17T16:40:40;3.70;;;1.80;;
2724;SDS011;1370;52.596;13.112;2022-09-17T16:43:07;5.20;;;1.57;;
2724;SDS011;1370;52.596;13.112;2022-09-17T16:45:32;2.10;;;1.27;;
2724;SDS011;1370;52.596;13.112;2022-09-17T16:47:58;7.20;;;2.40;;
2724;SDS011;1370;52.596;13.112;2022-09-17T16:50:23;3.50;;;1.30;;
2724;SDS011;1370;52.596;13.112;2022-09-17T16:52:49;2.30;;;1.10;;
2724;SDS011;1370;52.596;13.112;2022-09-17T16:55:15;1.70;;;1.13;;
2724;SDS011;1370;52.596;13.112;2022-09-17T16:57:41;2.03;;;1.00;;
2724;SDS011;1370;52.596;13.112;2022-09-17T17:00:07;1.80;;;0.90;;
2724;SDS011;1370;52.596;13.112;2022-09-17T17:02:40;3.00;;;1.50;;
2724;SDS011;1370;52.596;13.112;2022-09-17T17:05:05;7.43;;;1.33;;
2724;SDS011;1370;52.596;13.112;2022-09-17T17:07:30;5.43;;;1.40;;
2724;SDS011;1370;52.596;13.112;2022-09-17T17:09:56;5.03;;;1.90;;
2724;SDS011;1370;52.596;13.112;2022-09-17T17:12:23;1.50;;;0.83;;
2724;SDS011;1370;52.596;13.112;2022-09-17T17:14:48;2.90;;;1.20;;
2724;SDS011;1370;52.596;13.112;2022-09-17T17:17:14;1.93;;;0.80;;
2724;SDS011;1370;52.596;13.112;2022-09-17T17:19:40;2.33;;;1.53;;
2724;SDS011;1370;52.596;13.112;2022-09-17T17:22:06;6.30;;;1.13;;
2724;SDS011;1370;52.596;13.112;2022-09-17T17:24:32;2.10;;;1.00;;
2724;SDS011;1370;52.596;13.112;2022-09-17T17:26:57;4.17;;;1.13;;
2724;SDS011;1370;52.596;13.112;2022-09-17T17:29:23;6.00;;;1.30;;
2724;SDS011;1370;52.596;13.112;2022-09-17T17:31:48;3.87;;;1.10;;
2724;SDS011;1370;52.596;13.112;2022-09-17T17:34:13;3.73;;;1.47;;
2724;SDS011;1370;52.596;13.112;2022-09-17T17:36:38;2.33;;;1.30;;
2724;SDS011;1370;52.596;13.112;2022-09-17T17:39:04;7.43;;;1.60;;
2724;SDS011;1370;52.596;13.112;2022-09-17T17:41:29;1.70;;;1.10;;
2724;SDS011;1370;52.596;13.112;2022-09-17T17:43:55;2.70;;;1.83;;